createdAt,value
2023-03-19T00:00:41.617Z,9.20
2023-03-19T00:03:29.660Z,9.18
2023-03-19T00:05:57.727Z,9.17
2023-03-19T00:08:26.187Z,9.13
2023-03-19T00:10:54.432Z,9.08
2023-03-19T00:13:22.536Z,9.04
2023-03-19T00:15:50.606Z,9.02
2023-03-19T00:18:18.683Z,8.97
2023-03-19T00:20:47.155Z,8.93
2023-03-19T00:23:15.339Z,8.86
2023-03-19T00:25:43.401Z,8.86
2023-03-19T00:28:12.294Z,8.83
2023-03-19T00:30:41.255Z,8.79
2023-03-19T00:33:09.430Z,8.73
2023-03-19T00:35:40.494Z,8.72
2023-03-19T00:38:09.073Z,8.68
2023-03-19T00:40:37.462Z,8.64
2023-03-19T00:43:06.443Z,8.60
2023-03-19T00:45:34.976Z,8.56
2023-03-19T00:48:03.304Z,8.51
2023-03-19T00:50:31.340Z,8.49
2023-03-19T00:52:59.448Z,8.48
2023-03-19T00:55:27.822Z,8.46
2023-03-19T00:57:56.279Z,8.44
2023-03-19T01:00:24.785Z,8.40
2023-03-19T01:02:53.205Z,8.35
2023-03-19T01:05:21.541Z,8.30
2023-03-19T01:07:49.640Z,8.27
2023-03-19T01:10:23.061Z,8.22
2023-03-19T01:12:51.424Z,8.17
2023-03-19T01:15:20.165Z,8.12
2023-03-19T01:17:48.561Z,8.07
2023-03-19T01:20:19.049Z,8.02
2023-03-19T01:22:47.251Z,8.02
2023-03-19T01:25:15.415Z,8.00
2023-03-19T01:27:52.582Z,7.96
2023-03-19T01:30:21.898Z,7.94
2023-03-19T01:33:09.037Z,7.89
2023-03-19T01:35:54.371Z,7.83
2023-03-19T01:38:25.580Z,7.82
2023-03-19T01:40:55.513Z,7.82
2023-03-19T01:43:26.282Z,7.80
2023-03-19T01:46:04.870Z,7.79
2023-03-19T01:48:46.212Z,7.77
2023-03-19T01:51:19.274Z,7.77
2023-03-19T01:54:00.856Z,7.75
2023-03-19T01:56:38.924Z,7.72
2023-03-19T01:59:30.352Z,7.66
2023-03-19T02:02:18.514Z,7.66
2023-03-19T02:04:49.372Z,7.66
2023-03-19T02:07:17.856Z,7.65
2023-03-19T02:09:46.714Z,7.66
2023-03-19T02:12:16.426Z,7.67
2023-03-19T02:14:44.560Z,7.67
2023-03-19T02:17:12.878Z,7.66
2023-03-19T02:19:52.924Z,7.65
2023-03-19T02:22:24.177Z,7.62
2023-03-19T02:25:06.482Z,7.59
2023-03-19T02:27:35.849Z,7.55
2023-03-19T02:30:23.706Z,7.56
2023-03-19T02:32:52.208Z,7.53
2023-03-19T02:35:21.103Z,7.54
2023-03-19T02:37:49.257Z,7.56
2023-03-19T02:40:21.539Z,7.59
2023-03-19T02:42:49.531Z,7.63
2023-03-19T02:45:18.341Z,7.68
2023-03-19T02:47:46.567Z,7.74
2023-03-19T02:50:14.731Z,7.78
2023-03-19T02:52:42.670Z,7.83
2023-03-19T02:55:10.672Z,7.87
2023-03-19T02:57:38.837Z,7.91
2023-03-19T03:00:07.953Z,7.93
2023-03-19T03:02:36.794Z,7.95
2023-03-19T03:05:06.634Z,7.97
2023-03-19T03:07:34.739Z,7.95
2023-03-19T03:10:02.876Z,7.94
2023-03-19T03:12:31.796Z,7.93
2023-03-19T03:14:59.839Z,7.93
2023-03-19T03:17:28.324Z,7.92
2023-03-19T03:19:56.391Z,7.88
2023-03-19T03:22:24.465Z,7.84
2023-03-19T03:24:52.582Z,7.82
2023-03-19T03:27:20.643Z,7.79
2023-03-19T03:29:48.983Z,7.79
2023-03-19T03:32:17.385Z,7.81
2023-03-19T03:34:46.551Z,7.81
2023-03-19T03:37:14.931Z,7.81
2023-03-19T03:39:43.430Z,7.81
2023-03-19T03:42:11.802Z,7.81
2023-03-19T03:44:40.810Z,7.80
2023-03-19T03:47:09.270Z,7.81
2023-03-19T03:49:37.617Z,7.83
2023-03-19T03:52:06.284Z,7.84
2023-03-19T03:54:34.392Z,7.84
2023-03-19T03:57:03.674Z,7.85
2023-03-19T03:59:32.073Z,7.84
2023-03-19T04:02:00.255Z,7.83
2023-03-19T04:04:28.928Z,7.83
2023-03-19T04:06:57.752Z,7.80
2023-03-19T04:09:33.248Z,7.76
2023-03-19T04:12:01.340Z,7.74
2023-03-19T04:14:30.631Z,7.71
2023-03-19T04:16:59.277Z,7.69
2023-03-19T04:19:27.609Z,7.70
2023-03-19T04:21:55.627Z,7.70
2023-03-19T04:24:24.322Z,7.71
2023-03-19T04:26:53.469Z,7.71
2023-03-19T04:29:22.664Z,7.68
2023-03-19T04:31:51.529Z,7.65
2023-03-19T04:34:19.921Z,7.62
2023-03-19T04:36:48.487Z,7.59
2023-03-19T04:39:16.556Z,7.51
2023-03-19T04:41:45.447Z,7.45
2023-03-19T04:44:26.015Z,7.40
2023-03-19T04:46:54.493Z,7.41
2023-03-19T04:49:23.327Z,7.41
2023-03-19T04:51:51.960Z,7.43
2023-03-19T04:54:20.964Z,7.41
2023-03-19T04:56:49.395Z,7.39
2023-03-19T04:59:18.016Z,7.36
2023-03-19T05:01:46.135Z,7.32
2023-03-19T05:04:17.893Z,7.32
2023-03-19T05:06:46.729Z,7.29
2023-03-19T05:09:14.801Z,7.30
2023-03-19T05:11:44.205Z,7.30
2023-03-19T05:14:16.852Z,7.28
2023-03-19T05:17:03.486Z,7.26
2023-03-19T05:19:39.862Z,7.27
2023-03-19T05:22:09.287Z,7.28
2023-03-19T05:24:37.552Z,7.30
2023-03-19T05:27:05.808Z,7.33
2023-03-19T05:29:42.788Z,7.33
2023-03-19T05:32:31.079Z,7.30
2023-03-19T05:35:00.129Z,7.33
2023-03-19T05:37:28.422Z,7.34
2023-03-19T05:39:57.701Z,7.36
2023-03-19T05:42:26.466Z,7.37
2023-03-19T05:44:55.800Z,7.41
2023-03-19T05:47:39.392Z,7.48
2023-03-19T05:50:08.542Z,7.57
2023-03-19T05:52:37.308Z,7.69
2023-03-19T05:55:06.942Z,7.84
2023-03-19T05:57:34.929Z,8.00
2023-03-19T06:00:28.847Z,8.17
2023-03-19T06:02:57.272Z,8.33
2023-03-19T06:05:36.744Z,8.55
2023-03-19T06:08:18.768Z,8.71
2023-03-19T06:11:00.860Z,8.84
2023-03-19T06:13:29.132Z,8.90
2023-03-19T06:15:59.905Z,8.94
2023-03-19T06:18:35.225Z,9.00
2023-03-19T06:21:07.302Z,9.05
2023-03-19T06:23:36.279Z,9.10
2023-03-19T06:26:06.252Z,9.14
2023-03-19T06:28:38.926Z,9.17
2023-03-19T06:31:07.399Z,9.20
2023-03-19T06:33:57.323Z,9.23
2023-03-19T06:36:30.008Z,9.32
2023-03-19T06:38:58.502Z,9.41
2023-03-19T06:41:26.777Z,9.49
2023-03-19T06:43:58.926Z,9.52
2023-03-19T06:46:26.992Z,9.62
2023-03-19T06:48:55.279Z,9.70
2023-03-19T06:51:24.415Z,9.75
2023-03-19T06:53:52.474Z,9.79
2023-03-19T06:56:21.251Z,9.80
2023-03-19T06:58:49.298Z,9.79
2023-03-19T07:01:17.587Z,9.78
2023-03-19T07:03:45.966Z,9.74
2023-03-19T07:06:14.039Z,9.72
2023-03-19T07:08:46.389Z,9.71
2023-03-19T07:11:16.575Z,9.65
2023-03-19T07:13:44.608Z,9.65
2023-03-19T07:16:12.753Z,9.67
2023-03-19T07:18:41.035Z,9.70
2023-03-19T07:21:09.203Z,9.71
2023-03-19T07:23:37.474Z,9.71
2023-03-19T07:26:05.958Z,9.73
2023-03-19T07:28:34.647Z,9.75
2023-03-19T07:31:02.708Z,9.74
2023-03-19T07:33:30.786Z,9.73
2023-03-19T07:35:58.917Z,9.72
2023-03-19T07:38:27.119Z,9.76
2023-03-19T07:41:01.846Z,9.80
2023-03-19T07:43:31.468Z,9.84
2023-03-19T07:46:00.389Z,9.87
2023-03-19T07:48:28.827Z,9.90
2023-03-19T07:50:57.099Z,9.93
2023-03-19T07:53:25.232Z,9.97
2023-03-19T07:55:53.956Z,10.02
2023-03-19T07:58:22.242Z,10.06
2023-03-19T08:00:51.025Z,10.10
2023-03-19T08:03:19.096Z,10.17
2023-03-19T08:05:50.341Z,10.25
2023-03-19T08:08:19.341Z,10.21
2023-03-19T08:10:48.477Z,10.16
2023-03-19T08:13:16.859Z,10.08
2023-03-19T08:15:44.984Z,10.05
2023-03-19T08:18:13.859Z,10.07
2023-03-19T08:20:41.934Z,10.08
2023-03-19T08:23:10.212Z,10.12
2023-03-19T08:25:38.405Z,10.18
2023-03-19T08:28:07.329Z,10.23
2023-03-19T08:30:36.857Z,10.30
2023-03-19T08:33:06.213Z,10.40
2023-03-19T08:35:34.700Z,10.47
2023-03-19T08:38:02.769Z,10.50
2023-03-19T08:40:30.797Z,10.53
2023-03-19T08:42:59.069Z,10.57
2023-03-19T08:45:27.143Z,10.59
2023-03-19T08:47:58.086Z,10.62
2023-03-19T08:50:26.371Z,10.64
2023-03-19T08:52:54.586Z,10.65
2023-03-19T08:55:22.529Z,10.72
2023-03-19T08:57:50.873Z,10.78
2023-03-19T09:00:19.630Z,10.85
2023-03-19T09:02:47.626Z,10.92
2023-03-19T09:05:16.617Z,11.00
2023-03-19T09:07:44.694Z,11.03
2023-03-19T09:10:12.860Z,11.02
2023-03-19T09:12:40.931Z,11.05
2023-03-19T09:15:10.097Z,11.10
2023-03-19T09:17:38.198Z,11.18
2023-03-19T09:20:07.582Z,11.25
2023-03-19T09:22:35.589Z,11.32
2023-03-19T09:25:04.047Z,11.37
2023-03-19T09:27:32.844Z,11.42
2023-03-19T09:30:01.047Z,11.52
2023-03-19T09:32:29.184Z,11.62
2023-03-19T09:34:57.870Z,11.68
2023-03-19T09:37:25.836Z,11.75
2023-03-19T09:39:53.909Z,11.82
2023-03-19T09:42:40.883Z,11.91
2023-03-19T09:45:16.566Z,11.97
2023-03-19T09:47:46.797Z,12.03
2023-03-19T09:50:18.139Z,12.08
2023-03-19T09:52:49.799Z,12.15
2023-03-19T09:55:17.765Z,12.25
2023-03-19T09:57:48.358Z,12.37
2023-03-19T10:00:37.653Z,12.48
2023-03-19T10:03:17.681Z,12.57
2023-03-19T10:06:08.820Z,12.67
2023-03-19T10:08:46.011Z,12.77
2023-03-19T10:11:16.841Z,12.87
2023-03-19T10:13:57.213Z,12.95
2023-03-19T10:16:28.607Z,13.04
2023-03-19T10:19:03.665Z,13.11
2023-03-19T10:21:37.576Z,13.16
2023-03-19T10:24:24.808Z,13.25
2023-03-19T10:27:00.576Z,13.29
2023-03-19T10:29:28.732Z,13.35
2023-03-19T10:32:12.060Z,13.40
2023-03-19T10:34:46.550Z,13.42
2023-03-19T10:37:28.397Z,13.48
2023-03-19T10:39:59.128Z,13.55
2023-03-19T10:42:58.718Z,13.65
2023-03-19T10:45:30.287Z,13.71
2023-03-19T10:48:00.902Z,13.79
2023-03-19T10:50:34.992Z,13.87
2023-03-19T10:53:27.654Z,13.94
2023-03-19T10:56:00.049Z,13.95
2023-03-19T10:58:31.080Z,13.98
2023-03-19T11:01:07.348Z,14.03
2023-03-19T11:03:38.262Z,14.10
2023-03-19T11:06:35.731Z,14.20
2023-03-19T11:09:19.974Z,14.26
2023-03-19T11:11:51.184Z,14.28
2023-03-19T11:14:24.796Z,14.33
2023-03-19T11:17:16.092Z,14.37
2023-03-19T11:19:52.322Z,14.44
2023-03-19T11:22:35.955Z,14.53
2023-03-19T11:25:19.884Z,14.62
2023-03-19T11:28:08.120Z,14.71
2023-03-19T11:31:02.127Z,14.80
2023-03-19T11:33:42.761Z,14.84
2023-03-19T11:36:20.094Z,14.89
2023-03-19T11:38:51.394Z,14.93
2023-03-19T11:41:38.101Z,14.97
2023-03-19T11:44:12.292Z,14.99
2023-03-19T11:47:26.402Z,15.01
2023-03-19T11:50:24.776Z,14.99
2023-03-19T11:53:27.415Z,15.07
2023-03-19T11:56:16.283Z,15.14
2023-03-19T11:59:29.273Z,15.23
2023-03-19T12:02:24.853Z,15.30
2023-03-19T12:05:14.707Z,15.37
2023-03-19T12:07:42.726Z,15.44
2023-03-19T12:10:29.451Z,15.52
2023-03-19T12:13:03.187Z,15.58
2023-03-19T12:15:46.678Z,15.63
2023-03-19T12:18:39.182Z,15.69
2023-03-19T12:21:29.870Z,15.72
2023-03-19T12:24:53.122Z,15.77
2023-03-19T12:27:49.669Z,15.77
2023-03-19T12:30:32.990Z,15.80
2023-03-19T12:33:07.800Z,15.86
2023-03-19T12:35:42.042Z,15.92
2023-03-19T12:38:28.947Z,15.98
2023-03-19T12:41:11.248Z,16.02
2023-03-19T12:44:04.493Z,16.06
2023-03-19T12:47:02.948Z,16.09
2023-03-19T12:49:40.659Z,16.10
2023-03-19T12:52:20.836Z,16.14
2023-03-19T12:55:11.234Z,16.16
2023-03-19T12:57:49.038Z,16.14
2023-03-19T13:00:52.851Z,16.14
2023-03-19T13:03:48.056Z,16.11
2023-03-19T13:06:37.316Z,16.10
2023-03-19T13:09:27.170Z,16.09
2023-03-19T13:12:02.104Z,16.11
2023-03-19T13:15:21.140Z,16.16
2023-03-19T13:18:16.848Z,16.14
2023-03-19T13:21:21.849Z,16.12
2023-03-19T13:24:15.824Z,16.14
2023-03-19T13:26:45.528Z,16.16
2023-03-19T13:29:22.410Z,16.20
2023-03-19T13:31:52.235Z,16.23
2023-03-19T13:34:27.165Z,16.26
2023-03-19T13:37:22.072Z,16.27
2023-03-19T13:39:50.464Z,16.27
2023-03-19T13:42:38.058Z,16.28
2023-03-19T13:45:30.401Z,16.28
2023-03-19T13:48:24.376Z,16.28
2023-03-19T13:51:02.073Z,16.32
2023-03-19T13:53:42.545Z,16.36
2023-03-19T13:56:28.717Z,16.41
2023-03-19T13:59:16.880Z,16.46
2023-03-19T14:01:45.823Z,16.46
2023-03-19T14:04:22.635Z,16.49
2023-03-19T14:06:56.449Z,16.54
2023-03-19T14:09:48.775Z,16.57
2023-03-19T14:12:22.796Z,16.58
2023-03-19T14:14:56.169Z,16.60
2023-03-19T14:17:48.258Z,16.60
2023-03-19T14:20:20.572Z,16.59
2023-03-19T14:23:11.440Z,16.62
2023-03-19T14:26:31.080Z,16.64
2023-03-19T14:29:06.133Z,16.61
2023-03-19T14:31:50.842Z,16.61
2023-03-19T14:34:35.668Z,16.60
2023-03-19T14:37:15.574Z,16.60
2023-03-19T14:39:46.019Z,16.61
2023-03-19T14:42:19.842Z,16.62
2023-03-19T14:45:38.347Z,16.61
2023-03-19T14:48:18.208Z,16.52
2023-03-19T14:51:05.942Z,16.51
2023-03-19T14:53:39.544Z,16.51
2023-03-19T14:56:15.147Z,16.55
2023-03-19T14:58:57.074Z,16.57
2023-03-19T15:01:29.386Z,16.58
2023-03-19T15:04:00.905Z,16.58
2023-03-19T15:06:53.780Z,16.58
2023-03-19T15:09:27.745Z,16.54
2023-03-19T15:12:14.369Z,16.54
2023-03-19T15:15:10.152Z,16.47
2023-03-19T15:17:39.070Z,16.40
2023-03-19T15:20:21.974Z,16.37
2023-03-19T15:23:00.695Z,16.34
2023-03-19T15:25:28.907Z,16.30
2023-03-19T15:28:13.761Z,16.29
2023-03-19T15:30:54.677Z,16.29
2023-03-19T15:33:42.151Z,16.27
2023-03-19T15:36:30.377Z,16.24
2023-03-19T15:39:09.526Z,16.23
2023-03-19T15:41:45.242Z,16.23
2023-03-19T15:44:27.993Z,16.23
2023-03-19T15:46:57.818Z,16.22
2023-03-19T15:49:31.417Z,16.21
2023-03-19T15:52:05.003Z,16.21
2023-03-19T15:54:34.211Z,16.21
2023-03-19T15:57:02.379Z,16.21
2023-03-19T15:59:32.098Z,16.21
2023-03-19T16:02:01.892Z,16.21
2023-03-19T16:04:38.415Z,16.20
2023-03-19T16:07:25.279Z,16.15
2023-03-19T16:09:53.823Z,16.11
2023-03-19T16:12:51.927Z,16.09
2023-03-19T16:15:22.124Z,16.05
2023-03-19T16:17:50.699Z,16.03
2023-03-19T16:20:18.844Z,16.02
2023-03-19T16:22:58.793Z,16.00
2023-03-19T16:25:31.548Z,15.97
2023-03-19T16:27:59.626Z,15.93
2023-03-19T16:30:28.048Z,15.90
2023-03-19T16:33:06.908Z,15.87
2023-03-19T16:35:36.872Z,15.83
2023-03-19T16:38:14.543Z,15.78
2023-03-19T16:40:48.108Z,15.73
2023-03-19T16:43:22.393Z,15.68
2023-03-19T16:46:03.365Z,15.63
2023-03-19T16:48:31.480Z,15.55
2023-03-19T16:50:59.492Z,15.48
2023-03-19T16:53:30.830Z,15.41
2023-03-19T16:56:01.072Z,15.34
2023-03-19T16:58:33.268Z,15.27
2023-03-19T17:01:01.954Z,15.18
2023-03-19T17:03:30.441Z,15.09
2023-03-19T17:05:58.611Z,15.01
2023-03-19T17:08:26.682Z,14.94
2023-03-19T17:10:55.736Z,14.87
2023-03-19T17:13:28.579Z,14.80
2023-03-19T17:16:03.554Z,14.73
2023-03-19T17:18:42.205Z,14.65
2023-03-19T17:21:18.534Z,14.58
2023-03-19T17:23:47.362Z,14.52
2023-03-19T17:26:26.086Z,14.47
2023-03-19T17:28:55.436Z,14.40
2023-03-19T17:31:29.919Z,14.34
2023-03-19T17:34:06.448Z,14.28
2023-03-19T17:36:34.771Z,14.23
2023-03-19T17:39:03.390Z,14.18
2023-03-19T17:41:33.137Z,14.12
2023-03-19T17:44:04.269Z,14.05
2023-03-19T17:46:39.917Z,13.97
2023-03-19T17:49:31.142Z,13.91
2023-03-19T17:51:59.880Z,13.83
2023-03-19T17:54:28.110Z,13.80
2023-03-19T17:56:56.509Z,13.77
2023-03-19T17:59:24.579Z,13.72
2023-03-19T18:01:52.729Z,13.67
2023-03-19T18:04:22.538Z,13.61
2023-03-19T18:06:55.583Z,13.53
2023-03-19T18:09:27.132Z,13.46
2023-03-19T18:11:55.722Z,13.41
2023-03-19T18:14:23.747Z,13.33
2023-03-19T18:16:52.210Z,13.23
2023-03-19T18:19:36.458Z,13.13
2023-03-19T18:22:18.459Z,12.99
2023-03-19T18:24:46.631Z,12.87
2023-03-19T18:27:14.905Z,12.80
2023-03-19T18:29:42.986Z,12.74
2023-03-19T18:32:28.453Z,12.68
2023-03-19T18:34:57.092Z,12.58
2023-03-19T18:37:25.571Z,12.51
2023-03-19T18:39:53.588Z,12.45
2023-03-19T18:42:23.717Z,12.40
2023-03-19T18:44:51.776Z,12.35
2023-03-19T18:47:19.955Z,12.29
2023-03-19T18:49:48.124Z,12.23
2023-03-19T18:52:19.343Z,12.18
2023-03-19T18:54:48.048Z,12.11
2023-03-19T18:57:16.850Z,12.06
2023-03-19T18:59:45.606Z,12.01
2023-03-19T19:02:33.983Z,11.96
2023-03-19T19:05:02.448Z,11.86
2023-03-19T19:07:30.521Z,11.80
2023-03-19T19:09:58.690Z,11.76
2023-03-19T19:12:27.350Z,11.72
2023-03-19T19:14:58.847Z,11.68
2023-03-19T19:17:29.735Z,11.66
2023-03-19T19:19:57.838Z,11.63
2023-03-19T19:22:26.007Z,11.61
2023-03-19T19:24:54.071Z,11.59
2023-03-19T19:27:26.568Z,11.58
2023-03-19T19:29:55.038Z,11.59
2023-03-19T19:32:25.771Z,11.58
2023-03-19T19:34:54.151Z,11.52
2023-03-19T19:37:23.730Z,11.45
2023-03-19T19:39:52.151Z,11.39
2023-03-19T19:42:22.903Z,11.33
2023-03-19T19:44:55.371Z,11.30
2023-03-19T19:47:23.446Z,11.27
2023-03-19T19:49:51.478Z,11.24
2023-03-19T19:52:20.201Z,11.22
2023-03-19T19:54:48.839Z,11.18
2023-03-19T19:57:22.942Z,11.16
2023-03-19T19:59:52.771Z,11.13
2023-03-19T20:02:23.192Z,11.12
2023-03-19T20:04:51.515Z,11.10
2023-03-19T20:07:19.640Z,11.08
2023-03-19T20:09:48.427Z,11.07
2023-03-19T20:12:24.065Z,11.06
2023-03-19T20:14:52.538Z,11.04
2023-03-19T20:17:23.978Z,11.03
2023-03-19T20:19:51.973Z,11.02
2023-03-19T20:22:20.047Z,11.01
2023-03-19T20:24:50.961Z,11.01
2023-03-19T20:27:22.735Z,11.01
2023-03-19T20:29:51.123Z,11.00
2023-03-19T20:32:33.618Z,10.98
2023-03-19T20:35:02.442Z,10.94
2023-03-19T20:37:31.117Z,10.91
2023-03-19T20:39:59.166Z,10.91
2023-03-19T20:42:30.469Z,10.89
2023-03-19T20:45:00.114Z,10.86
2023-03-19T20:47:29.130Z,10.82
2023-03-19T20:49:57.183Z,10.82
2023-03-19T20:52:26.074Z,10.85
2023-03-19T20:54:54.366Z,10.88
2023-03-19T20:57:31.327Z,10.89
2023-03-19T21:00:10.705Z,10.88
2023-03-19T21:02:38.854Z,10.85
2023-03-19T21:05:09.160Z,10.86
2023-03-19T21:07:37.224Z,10.86
2023-03-19T21:10:39.292Z,10.85
2023-03-19T21:13:07.313Z,10.80
2023-03-19T21:15:35.543Z,10.80
2023-03-19T21:18:03.808Z,10.79
2023-03-19T21:20:33.295Z,10.79
2023-03-19T21:23:31.687Z,10.80
2023-03-19T21:26:08.877Z,10.80
2023-03-19T21:28:38.901Z,10.85
2023-03-19T21:31:11.749Z,10.89
2023-03-19T21:33:40.678Z,10.92
2023-03-19T21:36:10.074Z,10.95
2023-03-19T21:38:38.146Z,10.96
2023-03-19T21:41:18.130Z,10.97
2023-03-19T21:43:50.827Z,10.97
2023-03-19T21:46:25.123Z,10.98
2023-03-19T21:48:54.700Z,10.95
2023-03-19T21:51:23.889Z,10.92
2023-03-19T21:53:52.423Z,10.92
2023-03-19T21:56:35.804Z,10.91
2023-03-19T21:59:14.115Z,10.87
2023-03-19T22:01:42.597Z,10.84
2023-03-19T22:04:10.979Z,10.81
2023-03-19T22:06:40.281Z,10.77
2023-03-19T22:09:08.439Z,10.74
2023-03-19T22:11:38.867Z,10.75
2023-03-19T22:14:26.979Z,10.78
2023-03-19T22:16:56.485Z,10.78
2023-03-19T22:19:26.001Z,10.82
2023-03-19T22:21:54.085Z,10.87
2023-03-19T22:24:22.164Z,10.89
2023-03-19T22:26:56.549Z,10.90
2023-03-19T22:29:25.836Z,10.89
2023-03-19T22:31:56.110Z,10.89
2023-03-19T22:34:28.058Z,10.90
2023-03-19T22:36:56.440Z,10.90
2023-03-19T22:39:24.710Z,10.90
2023-03-19T22:41:52.889Z,10.89
2023-03-19T22:44:24.424Z,10.84
2023-03-19T22:46:54.145Z,10.80
2023-03-19T22:49:22.320Z,10.76
2023-03-19T22:51:51.366Z,10.76
2023-03-19T22:54:19.408Z,10.78
2023-03-19T22:56:47.357Z,10.79
2023-03-19T22:59:16.244Z,10.81
2023-03-19T23:01:46.622Z,10.84
2023-03-19T23:04:22.511Z,10.86
2023-03-19T23:06:52.654Z,10.86
2023-03-19T23:09:27.231Z,10.88
2023-03-19T23:11:56.481Z,10.92
2023-03-19T23:14:31.797Z,10.97
2023-03-19T23:17:03.674Z,10.97
2023-03-19T23:19:34.925Z,10.97
2023-03-19T23:22:05.332Z,10.94
2023-03-19T23:24:35.287Z,10.89
2023-03-19T23:27:04.223Z,10.84
2023-03-19T23:29:37.549Z,10.83
2023-03-19T23:32:06.109Z,10.85
2023-03-19T23:34:42.340Z,10.86
2023-03-19T23:37:14.032Z,10.83
2023-03-19T23:39:43.019Z,10.82
2023-03-19T23:42:25.018Z,10.80
2023-03-19T23:44:57.037Z,10.75
2023-03-19T23:47:25.671Z,10.74
2023-03-19T23:49:53.753Z,10.75
2023-03-19T23:52:22.106Z,10.75
2023-03-19T23:54:50.910Z,10.78
2023-03-19T23:57:21.720Z,10.80
2023-03-19T23:59:52.156Z,10.80
